Ewell, Maryland
Current Conditions -  °F | °C
As of 12:53 AM on Saturday 25 Oct 2014 (Local Time) from KNUI Reporting Station
Clear Clear  
Wind Chill: 56°   Ceiling: Unl
Heat Index: 56°   Visibility: 10mi
Dew Point: 35°   Wind: 8mph
Humidity: 45%   Direction: 300°WNW
Pressure: 29.95"   Gusts: NA
Location:  37.99°N, 76.03°W
Report Text: KNUI 250453Z AUTO 30007KT 10SM CLR 13/02 A2995 RMK AO2 SLP141 T01330017 401940094 $
Loading
Personal Weather Stations






























Interactive Weather Map
Tropical Storm Tracking
New forecast layout! Learn more

10-Day Weather Forecast

Advertisements
Track Severe Weather on mobile